sensor_id;sensor_type;location;lat;lon;timestamp;pressure;altitude;pressure_sealevel;temperature;humidity
19884;BME280;10104;50.732;10.174;2023-04-30T00:01:11;98361.56;;;9.35;75.86
19884;BME280;10104;50.732;10.174;2023-04-30T00:03:32;98358.94;;;9.27;75.97
19884;BME280;10104;50.732;10.174;2023-04-30T00:05:54;98357.44;;;9.32;75.77
19884;BME280;10104;50.732;10.174;2023-04-30T00:08:15;98364.09;;;9.04;76.85
19884;BME280;10104;50.732;10.174;2023-04-30T00:10:37;98359.66;;;9.05;76.79
19884;BME280;10104;50.732;10.174;2023-04-30T00:12:58;98370.06;;;8.98;76.85
19884;BME280;10104;50.732;10.174;2023-04-30T00:15:20;98369.56;;;8.95;76.61
19884;BME280;10104;50.732;10.174;2023-04-30T00:17:41;98374.03;;;8.94;76.20
19884;BME280;10104;50.732;10.174;2023-04-30T00:20:03;98371.72;;;8.99;75.91
19884;BME280;10104;50.732;10.174;2023-04-30T00:22:25;98368.25;;;8.99;75.71
19884;BME280;10104;50.732;10.174;2023-04-30T00:24:46;98371.22;;;8.79;76.31
19884;BME280;10104;50.732;10.174;2023-04-30T00:27:08;98379.81;;;8.81;75.85
19884;BME280;10104;50.732;10.174;2023-04-30T00:29:29;98379.63;;;8.67;76.25
19884;BME280;10104;50.732;10.174;2023-04-30T00:31:51;98382.25;;;8.67;75.87
19884;BME280;10104;50.732;10.174;2023-04-30T00:34:12;98383.91;;;8.60;75.93
19884;BME280;10104;50.732;10.174;2023-04-30T00:36:33;98387.69;;;8.49;75.77
19884;BME280;10104;50.732;10.174;2023-04-30T00:38:55;98387.00;;;8.47;75.72
19884;BME280;10104;50.732;10.174;2023-04-30T00:41:17;98388.81;;;8.46;75.34
19884;BME280;10104;50.732;10.174;2023-04-30T00:43:39;98389.31;;;8.42;75.50
19884;BME280;10104;50.732;10.174;2023-04-30T00:46:00;98391.78;;;8.35;75.23
19884;BME280;10104;50.732;10.174;2023-04-30T00:48:24;98390.78;;;8.36;74.84
19884;BME280;10104;50.732;10.174;2023-04-30T00:50:46;98396.06;;;8.36;74.99
19884;BME280;10104;50.732;10.174;2023-04-30T00:53:08;98398.38;;;8.39;74.63
19884;BME280;10104;50.732;10.174;2023-04-30T00:55:29;98403.66;;;8.31;74.49
19884;BME280;10104;50.732;10.174;2023-04-30T00:57:51;98395.03;;;8.29;74.63
19884;BME280;10104;50.732;10.174;2023-04-30T01:00:13;98398.41;;;8.05;75.07
19884;BME280;10104;50.732;10.174;2023-04-30T01:02:36;98401.25;;;8.12;74.77
19884;BME280;10104;50.732;10.174;2023-04-30T01:04:57;98403.47;;;7.91;75.37
19884;BME280;10104;50.732;10.174;2023-04-30T01:07:19;98409.75;;;7.90;74.88
19884;BME280;10104;50.732;10.174;2023-04-30T01:09:41;98406.78;;;7.93;74.75
19884;BME280;10104;50.732;10.174;2023-04-30T01:17:15;98399.63;;;7.77;74.57
19884;BME280;10104;50.732;10.174;2023-04-30T01:19:44;98415.53;;;7.67;74.50
19884;BME280;10104;50.732;10.174;2023-04-30T01:22:11;98417.34;;;7.59;74.61
19884;BME280;10104;50.732;10.174;2023-04-30T01:25:00;98411.59;;;7.63;74.53
19884;BME280;10104;50.732;10.174;2023-04-30T01:30:16;98418.56;;;7.47;74.64
19884;BME280;10104;50.732;10.174;2023-04-30T01:32:38;98416.91;;;7.46;74.36
19884;BME280;10104;50.732;10.174;2023-04-30T01:35:00;98417.91;;;7.45;74.36
19884;BME280;10104;50.732;10.174;2023-04-30T01:37:31;98419.50;;;7.38;74.93
19884;BME280;10104;50.732;10.174;2023-04-30T01:40:23;98423.31;;;7.43;74.02
19884;BME280;10104;50.732;10.174;2023-04-30T01:43:09;98426.06;;;7.34;74.33
19884;BME280;10104;50.732;10.174;2023-04-30T01:46:00;98425.63;;;7.20;74.48
19884;BME280;10104;50.732;10.174;2023-04-30T01:48:42;98426.09;;;7.16;74.41
19884;BME280;10104;50.732;10.174;2023-04-30T01:53:41;98424.47;;;6.97;74.71
19884;BME280;10104;50.732;10.174;2023-04-30T01:56:05;98429.13;;;7.03;74.36
19884;BME280;10104;50.732;10.174;2023-04-30T01:58:30;98434.69;;;7.00;74.53
19884;BME280;10104;50.732;10.174;2023-04-30T02:00:52;98440.28;;;6.97;74.06
19884;BME280;10104;50.732;10.174;2023-04-30T02:03:14;98430.13;;;6.84;74.49
19884;BME280;10104;50.732;10.174;2023-04-30T02:05:36;98433.13;;;6.89;74.74
19884;BME280;10104;50.732;10.174;2023-04-30T02:07:58;98440.41;;;6.78;74.84
19884;BME280;10104;50.732;10.174;2023-04-30T02:10:23;98441.03;;;6.89;75.36
19884;BME280;10104;50.732;10.174;2023-04-30T02:12:45;98440.66;;;6.84;75.12
19884;BME280;10104;50.732;10.174;2023-04-30T02:15:07;98438.41;;;6.72;76.85
19884;BME280;10104;50.732;10.174;2023-04-30T02:17:29;98439.13;;;6.82;76.05
19884;BME280;10104;50.732;10.174;2023-04-30T02:19:52;98442.28;;;6.68;76.64
19884;BME280;10104;50.732;10.174;2023-04-30T02:22:14;98444.41;;;6.64;75.57
19884;BME280;10104;50.732;10.174;2023-04-30T02:24:35;98440.78;;;6.65;75.57
19884;BME280;10104;50.732;10.174;2023-04-30T02:26:57;98448.00;;;6.63;75.89
19884;BME280;10104;50.732;10.174;2023-04-30T02:29:18;98440.56;;;6.59;76.08
19884;BME280;10104;50.732;10.174;2023-04-30T02:31:39;98440.31;;;6.34;77.18
19884;BME280;10104;50.732;10.174;2023-04-30T02:34:01;98453.84;;;6.39;76.21
19884;BME280;10104;50.732;10.174;2023-04-30T02:36:22;98454.81;;;6.38;76.51
19884;BME280;10104;50.732;10.174;2023-04-30T02:38:44;98444.16;;;6.40;76.54
19884;BME280;10104;50.732;10.174;2023-04-30T02:41:05;98456.16;;;6.42;75.97
19884;BME280;10104;50.732;10.174;2023-04-30T02:43:27;98447.88;;;6.37;76.38
19884;BME280;10104;50.732;10.174;2023-04-30T02:45:48;98446.69;;;6.32;76.56
19884;BME280;10104;50.732;10.174;2023-04-30T02:48:10;98443.47;;;6.38;75.78
19884;BME280;10104;50.732;10.174;2023-04-30T02:50:31;98446.91;;;6.38;75.69
19884;BME280;10104;50.732;10.174;2023-04-30T02:52:53;98448.56;;;6.39;75.06
19884;BME280;10104;50.732;10.174;2023-04-30T02:55:16;98453.84;;;6.12;77.11
19884;BME280;10104;50.732;10.174;2023-04-30T02:57:38;98451.47;;;6.19;76.29
19884;BME280;10104;50.732;10.174;2023-04-30T02:59:59;98455.06;;;6.18;76.56
19884;BME280;10104;50.732;10.174;2023-04-30T03:02:21;98457.25;;;6.22;76.40
19884;BME280;10104;50.732;10.174;2023-04-30T03:04:43;98455.31;;;6.24;75.71
19884;BME280;10104;50.732;10.174;2023-04-30T03:07:05;98459.34;;;6.19;76.46
19884;BME280;10104;50.732;10.174;2023-04-30T03:09:27;98455.38;;;6.15;75.89
19884;BME280;10104;50.732;10.174;2023-04-30T03:11:48;98468.69;;;6.03;76.04
19884;BME280;10104;50.732;10.174;2023-04-30T03:14:10;98458.84;;;6.05;76.06
19884;BME280;10104;50.732;10.174;2023-04-30T03:16:31;98456.38;;;6.04;76.05
19884;BME280;10104;50.732;10.174;2023-04-30T03:18:53;98452.63;;;6.06;75.35
19884;BME280;10104;50.732;10.174;2023-04-30T03:21:14;98457.22;;;6.04;75.63
19884;BME280;10104;50.732;10.174;2023-04-30T03:23:36;98460.97;;;6.02;75.68
19884;BME280;10104;50.732;10.174;2023-04-30T03:25:57;98456.22;;;6.05;75.86
19884;BME280;10104;50.732;10.174;2023-04-30T03:28:19;98461.22;;;6.08;75.82
19884;BME280;10104;50.732;10.174;2023-04-30T03:30:41;98457.69;;;6.18;75.53
19884;BME280;10104;50.732;10.174;2023-04-30T03:33:02;98461.53;;;5.96;77.44
19884;BME280;10104;50.732;10.174;2023-04-30T03:35:26;98459.16;;;6.02;77.42
19884;BME280;10104;50.732;10.174;2023-04-30T03:37:48;98464.31;;;5.94;79.09
19884;BME280;10104;50.732;10.174;2023-04-30T03:40:10;98467.13;;;5.74;79.38
19884;BME280;10104;50.732;10.174;2023-04-30T03:42:31;98461.56;;;5.86;78.75
19884;BME280;10104;50.732;10.174;2023-04-30T03:44:53;98465.06;;;5.67;79.54
19884;BME280;10104;50.732;10.174;2023-04-30T03:47:14;98462.53;;;5.76;79.05
19884;BME280;10104;50.732;10.174;2023-04-30T03:49:36;98466.44;;;5.62;80.10
19884;BME280;10104;50.732;10.174;2023-04-30T03:51:58;98467.06;;;5.46;81.40
19884;BME280;10104;50.732;10.174;2023-04-30T03:54:19;98464.78;;;5.70;79.93
19884;BME280;10104;50.732;10.174;2023-04-30T03:56:41;98466.06;;;5.57;80.79
19884;BME280;10104;50.732;10.174;2023-04-30T03:59:04;98467.72;;;5.67;80.04
19884;BME280;10104;50.732;10.174;2023-04-30T04:01:26;98465.03;;;5.77;79.79
19884;BME280;10104;50.732;10.174;2023-04-30T04:03:47;98459.91;;;5.76;80.38
19884;BME280;10104;50.732;10.174;2023-04-30T04:06:09;98464.25;;;5.57;82.63
19884;BME280;10104;50.732;10.174;2023-04-30T04:08:31;98462.38;;;5.40;84.19
19884;BME280;10104;50.732;10.174;2023-04-30T04:10:53;98462.06;;;5.43;83.57
19884;BME280;10104;50.732;10.174;2023-04-30T04:13:14;98461.41;;;5.32;84.80
19884;BME280;10104;50.732;10.174;2023-04-30T04:15:36;98458.09;;;5.39;83.97
19884;BME280;10104;50.732;10.174;2023-04-30T04:17:57;98478.66;;;5.44;83.57
19884;BME280;10104;50.732;10.174;2023-04-30T04:20:19;98475.31;;;5.61;82.62
19884;BME280;10104;50.732;10.174;2023-04-30T04:22:41;98475.38;;;5.42;84.23
19884;BME280;10104;50.732;10.174;2023-04-30T04:25:02;98481.97;;;5.46;84.24
19884;BME280;10104;50.732;10.174;2023-04-30T04:27:24;98489.88;;;5.36;85.40
19884;BME280;10104;50.732;10.174;2023-04-30T04:29:45;98482.84;;;5.37;85.91
19884;BME280;10104;50.732;10.174;2023-04-30T04:32:08;98490.72;;;5.37;86.52
19884;BME280;10104;50.732;10.174;2023-04-30T04:34:31;98482.41;;;5.32;87.67
19884;BME280;10104;50.732;10.174;2023-04-30T04:36:53;98485.47;;;5.37;87.24
19884;BME280;10104;50.732;10.174;2023-04-30T04:39:14;98483.25;;;5.42;87.13
19884;BME280;10104;50.732;10.174;2023-04-30T04:41:36;98492.06;;;5.60;86.20
19884;BME280;10104;50.732;10.174;2023-04-30T04:43:58;98491.06;;;5.70;85.53
19884;BME280;10104;50.732;10.174;2023-04-30T04:46:20;98504.50;;;5.58;86.65
19884;BME280;10104;50.732;10.174;2023-04-30T04:48:42;98497.47;;;5.49;87.10
19884;BME280;10104;50.732;10.174;2023-04-30T04:51:04;98503.56;;;5.40;86.80
19884;BME280;10104;50.732;10.174;2023-04-30T04:53:26;98501.88;;;5.39;86.71
19884;BME280;10104;50.732;10.174;2023-04-30T04:55:47;98504.22;;;5.51;85.72
19884;BME280;10104;50.732;10.174;2023-04-30T04:58:08;98497.00;;;5.73;84.43
19884;BME280;10104;50.732;10.174;2023-04-30T05:00:30;98504.03;;;5.91;83.60
19884;BME280;10104;50.732;10.174;2023-04-30T05:02:51;98498.53;;;6.12;82.60
19884;BME280;10104;50.732;10.174;2023-04-30T05:05:13;98502.28;;;6.09;82.99
19884;BME280;10104;50.732;10.174;2023-04-30T05:07:35;98500.00;;;6.24;82.30
19884;BME280;10104;50.732;10.174;2023-04-30T05:09:56;98502.03;;;6.30;82.73
19884;BME280;10104;50.732;10.174;2023-04-30T05:12:19;98500.50;;;6.37;82.35
19884;BME280;10104;50.732;10.174;2023-04-30T05:14:41;98504.97;;;6.27;83.89
19884;BME280;10104;50.732;10.174;2023-04-30T05:17:03;98503.66;;;6.14;84.34
19884;BME280;10104;50.732;10.174;2023-04-30T05:19:24;98507.13;;;6.14;84.93
19884;BME280;10104;50.732;10.174;2023-04-30T05:21:46;98501.72;;;6.16;84.91
19884;BME280;10104;50.732;10.174;2023-04-30T05:24:07;98496.25;;;6.27;84.23
19884;BME280;10104;50.732;10.174;2023-04-30T05:26:29;98503.81;;;6.39;83.00
19884;BME280;10104;50.732;10.174;2023-04-30T05:28:50;98511.50;;;6.50;82.69
19884;BME280;10104;50.732;10.174;2023-04-30T05:31:12;98504.56;;;6.49;83.37
19884;BME280;10104;50.732;10.174;2023-04-30T05:33:34;98506.84;;;6.62;82.23
19884;BME280;10104;50.732;10.174;2023-04-30T05:35:57;98512.06;;;6.72;82.02
19884;BME280;10104;50.732;10.174;2023-04-30T05:38:18;98506.03;;;6.79;81.31
19884;BME280;10104;50.732;10.174;2023-04-30T05:40:40;98510.44;;;6.88;81.35
19884;BME280;10104;50.732;10.174;2023-04-30T05:43:01;98508.88;;;6.96;81.13
19884;BME280;10104;50.732;10.174;2023-04-30T05:45:23;98511.63;;;6.94;81.54
19884;BME280;10104;50.732;10.174;2023-04-30T05:47:45;98503.00;;;7.02;81.34
19884;BME280;10104;50.732;10.174;2023-04-30T05:50:08;98503.00;;;7.02;81.65
19884;BME280;10104;50.732;10.174;2023-04-30T05:52:30;98500.63;;;7.16;80.79
19884;BME280;10104;50.732;10.174;2023-04-30T05:54:51;98503.06;;;7.27;80.44
19884;BME280;10104;50.732;10.174;2023-04-30T05:57:14;98508.38;;;7.36;80.18
19884;BME280;10104;50.732;10.174;2023-04-30T05:59:35;98500.25;;;7.47;79.78
19884;BME280;10104;50.732;10.174;2023-04-30T06:01:57;98500.28;;;7.55;79.66
19884;BME280;10104;50.732;10.174;2023-04-30T06:04:18;98494.19;;;7.54;80.37
19884;BME280;10104;50.732;10.174;2023-04-30T06:06:40;98491.63;;;7.62;79.75
19884;BME280;10104;50.732;10.174;2023-04-30T06:09:02;98491.50;;;7.72;79.78
19884;BME280;10104;50.732;10.174;2023-04-30T06:11:23;98493.06;;;7.83;79.46
19884;BME280;10104;50.732;10.174;2023-04-30T06:13:48;98499.38;;;7.90;79.72
19884;BME280;10104;50.732;10.174;2023-04-30T06:16:09;98498.91;;;7.94;79.70
19884;BME280;10104;50.732;10.174;2023-04-30T06:18:31;98494.97;;;7.98;80.56
19884;BME280;10104;50.732;10.174;2023-04-30T06:20:52;98496.28;;;8.02;80.95
19884;BME280;10104;50.732;10.174;2023-04-30T06:23:14;98498.50;;;8.15;80.57
19884;BME280;10104;50.732;10.174;2023-04-30T06:25:36;98494.59;;;8.27;80.60
19884;BME280;10104;50.732;10.174;2023-04-30T06:27:57;98494.34;;;8.30;80.93
19884;BME280;10104;50.732;10.174;2023-04-30T06:30:19;98491.69;;;8.30;82.50
19884;BME280;10104;50.732;10.174;2023-04-30T06:32:40;98485.97;;;8.43;82.62
19884;BME280;10104;50.732;10.174;2023-04-30T06:35:02;98491.72;;;8.38;86.49
19884;BME280;10104;50.732;10.174;2023-04-30T06:37:23;98490.13;;;8.53;87.11
19884;BME280;10104;50.732;10.174;2023-04-30T06:39:45;98491.63;;;8.56;85.85
19884;BME280;10104;50.732;10.174;2023-04-30T06:42:06;98490.97;;;8.62;87.34
19884;BME280;10104;50.732;10.174;2023-04-30T06:44:28;98497.13;;;8.79;86.99
19884;BME280;10104;50.732;10.174;2023-04-30T06:46:49;98501.91;;;8.75;87.96
19884;BME280;10104;50.732;10.174;2023-04-30T06:49:11;98492.00;;;8.77;90.61
19884;BME280;10104;50.732;10.174;2023-04-30T06:51:32;98498.59;;;8.73;91.38
19884;BME280;10104;50.732;10.174;2023-04-30T06:53:54;98493.84;;;8.85;90.67
19884;BME280;10104;50.732;10.174;2023-04-30T06:56:16;98503.25;;;8.87;91.21
19884;BME280;10104;50.732;10.174;2023-04-30T06:58:37;98499.44;;;8.74;92.34
19884;BME280;10104;50.732;10.174;2023-04-30T07:00:59;98500.78;;;8.94;90.74
19884;BME280;10104;50.732;10.174;2023-04-30T07:03:21;98508.03;;;8.92;90.31
19884;BME280;10104;50.732;10.174;2023-04-30T07:05:43;98506.53;;;8.89;90.17
19884;BME280;10104;50.732;10.174;2023-04-30T07:08:05;98510.19;;;8.97;88.81
19884;BME280;10104;50.732;10.174;2023-04-30T07:10:27;98514.97;;;8.93;90.06
19884;BME280;10104;50.732;10.174;2023-04-30T07:12:48;98513.03;;;9.11;88.19
19884;BME280;10104;50.732;10.174;2023-04-30T07:15:10;98513.34;;;9.16;87.83
19884;BME280;10104;50.732;10.174;2023-04-30T07:17:31;98516.66;;;9.26;86.27
19884;BME280;10104;50.732;10.174;2023-04-30T07:19:53;98515.50;;;9.21;86.42
19884;BME280;10104;50.732;10.174;2023-04-30T07:22:15;98505.94;;;9.28;86.50
19884;BME280;10104;50.732;10.174;2023-04-30T07:24:36;98507.75;;;9.36;87.60
19884;BME280;10104;50.732;10.174;2023-04-30T07:26:58;98507.91;;;9.34;87.77
19884;BME280;10104;50.732;10.174;2023-04-30T07:29:23;98504.94;;;9.45;85.87
19884;BME280;10104;50.732;10.174;2023-04-30T07:31:44;98499.81;;;9.68;84.75
19884;BME280;10104;50.732;10.174;2023-04-30T07:34:06;98504.44;;;9.74;86.48
19884;BME280;10104;50.732;10.174;2023-04-30T07:36:27;98500.78;;;9.83;86.26
19884;BME280;10104;50.732;10.174;2023-04-30T07:38:49;98491.34;;;9.89;87.02
19884;BME280;10104;50.732;10.174;2023-04-30T07:41:10;98493.75;;;10.14;84.96
19884;BME280;10104;50.732;10.174;2023-04-30T07:43:32;98504.97;;;10.25;82.56
19884;BME280;10104;50.732;10.174;2023-04-30T07:45:53;98502.84;;;10.28;82.41
19884;BME280;10104;50.732;10.174;2023-04-30T07:48:15;98503.75;;;10.43;83.09
19884;BME280;10104;50.732;10.174;2023-04-30T07:50:37;98491.84;;;10.47;79.26
19884;BME280;10104;50.732;10.174;2023-04-30T07:53:00;98491.91;;;10.62;80.54
19884;BME280;10104;50.732;10.174;2023-04-30T07:55:21;98493.53;;;10.71;79.50
19884;BME280;10104;50.732;10.174;2023-04-30T07:57:43;98503.06;;;10.80;78.21
19884;BME280;10104;50.732;10.174;2023-04-30T08:00:05;98505.66;;;10.97;78.53
19884;BME280;10104;50.732;10.174;2023-04-30T08:02:26;98504.13;;;11.02;78.08
19884;BME280;10104;50.732;10.174;2023-04-30T08:04:48;98496.75;;;11.12;79.52
19884;BME280;10104;50.732;10.174;2023-04-30T08:07:10;98506.19;;;11.15;78.02
19884;BME280;10104;50.732;10.174;2023-04-30T08:09:31;98502.34;;;11.17;76.20
19884;BME280;10104;50.732;10.174;2023-04-30T08:11:53;98502.66;;;11.22;77.87
19884;BME280;10104;50.732;10.174;2023-04-30T08:14:14;98509.06;;;11.28;78.45
19884;BME280;10104;50.732;10.174;2023-04-30T08:16:36;98505.63;;;11.42;76.81
19884;BME280;10104;50.732;10.174;2023-04-30T08:18:57;98500.09;;;11.52;76.96
19884;BME280;10104;50.732;10.174;2023-04-30T08:21:19;98494.53;;;11.61;76.06
19884;BME280;10104;50.732;10.174;2023-04-30T08:23:40;98502.41;;;11.69;76.75
19884;BME280;10104;50.732;10.174;2023-04-30T08:26:02;98505.03;;;11.78;75.77
19884;BME280;10104;50.732;10.174;2023-04-30T08:28:23;98501.38;;;11.93;74.51
19884;BME280;10104;50.732;10.174;2023-04-30T08:30:45;98498.50;;;12.03;75.60
19884;BME280;10104;50.732;10.174;2023-04-30T08:33:07;98498.19;;;12.12;72.17
19884;BME280;10104;50.732;10.174;2023-04-30T08:35:28;98504.16;;;12.29;71.49
19884;BME280;10104;50.732;10.174;2023-04-30T08:37:50;98501.75;;;12.49;72.99
19884;BME280;10104;50.732;10.174;2023-04-30T08:40:12;98501.59;;;12.50;71.66
19884;BME280;10104;50.732;10.174;2023-04-30T08:42:35;98498.25;;;12.63;69.91
19884;BME280;10104;50.732;10.174;2023-04-30T08:45:00;98494.78;;;12.63;71.86
19884;BME280;10104;50.732;10.174;2023-04-30T08:47:24;98494.47;;;12.72;72.20
19884;BME280;10104;50.732;10.174;2023-04-30T08:49:46;98494.56;;;12.79;74.79
19884;BME280;10104;50.732;10.174;2023-04-30T08:52:07;98490.78;;;12.88;70.27
19884;BME280;10104;50.732;10.174;2023-04-30T08:54:30;98486.16;;;12.96;70.33
19884;BME280;10104;50.732;10.174;2023-04-30T08:56:52;98488.28;;;13.22;65.60
19884;BME280;10104;50.732;10.174;2023-04-30T08:59:14;98489.69;;;13.40;65.52
19884;BME280;10104;50.732;10.174;2023-04-30T09:01:36;98485.81;;;13.42;64.99
19884;BME280;10104;50.732;10.174;2023-04-30T09:03:58;98496.03;;;13.39;67.27
19884;BME280;10104;50.732;10.174;2023-04-30T09:06:20;98492.59;;;13.45;63.80
19884;BME280;10104;50.732;10.174;2023-04-30T09:08:46;98488.72;;;13.47;62.99
19884;BME280;10104;50.732;10.174;2023-04-30T09:11:25;98488.78;;;13.54;66.80
19884;BME280;10104;50.732;10.174;2023-04-30T09:13:49;98491.22;;;13.76;65.13
19884;BME280;10104;50.732;10.174;2023-04-30T09:16:11;98482.91;;;13.86;66.84
19884;BME280;10104;50.732;10.174;2023-04-30T09:18:38;98483.59;;;13.95;63.93
19884;BME280;10104;50.732;10.174;2023-04-30T09:21:00;98479.47;;;13.92;63.84
19884;BME280;10104;50.732;10.174;2023-04-30T09:23:24;98474.22;;;14.05;62.61
19884;BME280;10104;50.732;10.174;2023-04-30T09:25:45;98473.81;;;14.08;60.74
19884;BME280;10104;50.732;10.174;2023-04-30T09:28:12;98475.94;;;14.19;62.62
19884;BME280;10104;50.732;10.174;2023-04-30T09:30:33;98471.28;;;14.28;61.54
19884;BME280;10104;50.732;10.174;2023-04-30T09:32:55;98479.03;;;14.23;60.94
19884;BME280;10104;50.732;10.174;2023-04-30T09:35:31;98478.28;;;14.36;61.49
19884;BME280;10104;50.732;10.174;2023-04-30T09:37:52;98465.63;;;14.44;61.71
19884;BME280;10104;50.732;10.174;2023-04-30T09:40:14;98474.25;;;14.46;60.91
19884;BME280;10104;50.732;10.174;2023-04-30T09:42:35;98471.81;;;14.51;60.71
19884;BME280;10104;50.732;10.174;2023-04-30T09:44:57;98468.63;;;14.76;62.53
19884;BME280;10104;50.732;10.174;2023-04-30T09:47:19;98472.56;;;14.86;60.16
19884;BME280;10104;50.732;10.174;2023-04-30T09:49:42;98477.31;;;14.97;61.24
19884;BME280;10104;50.732;10.174;2023-04-30T09:52:04;98477.34;;;15.04;59.90
19884;BME280;10104;50.732;10.174;2023-04-30T09:54:27;98460.75;;;15.28;57.74
19884;BME280;10104;50.732;10.174;2023-04-30T09:56:51;98467.56;;;15.57;56.07
19884;BME280;10104;50.732;10.174;2023-04-30T09:59:14;98464.25;;;15.49;54.70
19884;BME280;10104;50.732;10.174;2023-04-30T10:01:37;98467.56;;;15.57;58.91
19884;BME280;10104;50.732;10.174;2023-04-30T10:04:01;98473.09;;;15.56;58.33
19884;BME280;10104;50.732;10.174;2023-04-30T10:06:24;98465.66;;;15.45;56.34
19884;BME280;10104;50.732;10.174;2023-04-30T10:08:54;98467.53;;;15.51;53.17
19884;BME280;10104;50.732;10.174;2023-04-30T10:11:19;98469.63;;;15.55;56.48
19884;BME280;10104;50.732;10.174;2023-04-30T10:13:46;98464.50;;;15.60;56.23
19884;BME280;10104;50.732;10.174;2023-04-30T10:16:33;98469.63;;;15.55;58.66
19884;BME280;10104;50.732;10.174;2023-04-30T10:19:01;98463.22;;;15.96;54.21
19884;BME280;10104;50.732;10.174;2023-04-30T10:21:25;98465.03;;;16.15;53.50
19884;BME280;10104;50.732;10.174;2023-04-30T10:23:47;98460.50;;;16.22;52.70
19884;BME280;10104;50.732;10.174;2023-04-30T10:26:10;98457.25;;;16.00;52.10
19884;BME280;10104;50.732;10.174;2023-04-30T10:28:34;98449.03;;;16.02;52.12
19884;BME280;10104;50.732;10.174;2023-04-30T10:30:56;98447.00;;;15.97;53.75
19884;BME280;10104;50.732;10.174;2023-04-30T10:33:23;98442.66;;;15.96;52.57
19884;BME280;10104;50.732;10.174;2023-04-30T10:35:58;98441.16;;;16.20;51.75
19884;BME280;10104;50.732;10.174;2023-04-30T10:38:22;98411.50;;;16.41;53.52
19884;BME280;10104;50.732;10.174;2023-04-30T10:40:45;98441.34;;;16.25;52.53
19884;BME280;10104;50.732;10.174;2023-04-30T10:43:10;98437.16;;;16.42;53.79
19884;BME280;10104;50.732;10.174;2023-04-30T10:45:36;98432.06;;;16.41;49.23
19884;BME280;10104;50.732;10.174;2023-04-30T10:48:01;98427.44;;;16.54;50.88
19884;BME280;10104;50.732;10.174;2023-04-30T10:50:23;98429.50;;;16.66;51.36
19884;BME280;10104;50.732;10.174;2023-04-30T10:52:45;98424.50;;;16.76;49.34
19884;BME280;10104;50.732;10.174;2023-04-30T10:55:07;98419.97;;;16.76;50.15
19884;BME280;10104;50.732;10.174;2023-04-30T10:57:29;98419.38;;;16.74;51.04
19884;BME280;10104;50.732;10.174;2023-04-30T11:02:38;98416.75;;;16.54;49.04
19884;BME280;10104;50.732;10.174;2023-04-30T11:07:28;98408.47;;;16.76;49.85
19884;BME280;10104;50.732;10.174;2023-04-30T11:09:49;98404.44;;;16.91;49.99
19884;BME280;10104;50.732;10.174;2023-04-30T11:12:19;98409.50;;;17.06;48.38
19884;BME280;10104;50.732;10.174;2023-04-30T11:14:43;98406.53;;;17.21;48.77
19884;BME280;10104;50.732;10.174;2023-04-30T11:17:05;98397.97;;;17.30;47.77
19884;BME280;10104;50.732;10.174;2023-04-30T11:19:27;98401.66;;;17.36;48.75
19884;BME280;10104;50.732;10.174;2023-04-30T11:24:53;98389.91;;;17.62;48.06
19884;BME280;10104;50.732;10.174;2023-04-30T11:27:26;98388.28;;;17.54;48.21
19884;BME280;10104;50.732;10.174;2023-04-30T11:29:49;98392.59;;;17.62;49.61
19884;BME280;10104;50.732;10.174;2023-04-30T11:32:15;98383.09;;;17.84;48.52
19884;BME280;10104;50.732;10.174;2023-04-30T11:34:37;98385.75;;;17.84;47.13
19884;BME280;10104;50.732;10.174;2023-04-30T11:36:59;98385.19;;;18.00;48.91
19884;BME280;10104;50.732;10.174;2023-04-30T11:39:23;98384.50;;;18.23;48.88
19884;BME280;10104;50.732;10.174;2023-04-30T11:41:45;98386.47;;;18.64;48.19
19884;BME280;10104;50.732;10.174;2023-04-30T11:44:21;98386.84;;;19.09;46.00
19884;BME280;10104;50.732;10.174;2023-04-30T11:46:43;98372.00;;;19.48;45.20
19884;BME280;10104;50.732;10.174;2023-04-30T11:49:06;98377.59;;;19.93;44.26
19884;BME280;10104;50.732;10.174;2023-04-30T11:51:28;98372.84;;;20.35;41.36
19884;BME280;10104;50.732;10.174;2023-04-30T11:53:51;98372.53;;;20.60;41.52
19884;BME280;10104;50.732;10.174;2023-04-30T11:56:13;98367.47;;;20.64;42.34
19884;BME280;10104;50.732;10.174;2023-04-30T11:58:35;98367.69;;;20.90;42.30
19884;BME280;10104;50.732;10.174;2023-04-30T12:00:59;98371.41;;;21.18;39.69
19884;BME280;10104;50.732;10.174;2023-04-30T12:03:21;98372.88;;;21.59;41.05
19884;BME280;10104;50.732;10.174;2023-04-30T12:08:06;98367.97;;;22.33;37.86
19884;BME280;10104;50.732;10.174;2023-04-30T12:10:30;98358.28;;;23.12;36.93
19884;BME280;10104;50.732;10.174;2023-04-30T12:12:52;98356.06;;;23.73;37.26
19884;BME280;10104;50.732;10.174;2023-04-30T12:15:17;98352.94;;;24.58;36.59
19884;BME280;10104;50.732;10.174;2023-04-30T12:17:39;98354.13;;;25.08;36.19
19884;BME280;10104;50.732;10.174;2023-04-30T12:20:01;98358.44;;;24.89;34.62
19884;BME280;10104;50.732;10.174;2023-04-30T12:22:22;98364.41;;;25.01;34.07
19884;BME280;10104;50.732;10.174;2023-04-30T12:24:44;98357.91;;;25.07;32.66
19884;BME280;10104;50.732;10.174;2023-04-30T12:27:06;98353.59;;;25.16;33.01
19884;BME280;10104;50.732;10.174;2023-04-30T12:29:28;98338.84;;;25.93;33.25
19884;BME280;10104;50.732;10.174;2023-04-30T12:31:49;98333.81;;;26.90;32.86
19884;BME280;10104;50.732;10.174;2023-04-30T12:34:13;98338.47;;;26.30;32.11
19884;BME280;10104;50.732;10.174;2023-04-30T12:36:34;98332.44;;;26.43;31.81
19884;BME280;10104;50.732;10.174;2023-04-30T12:39:07;98333.28;;;27.56;30.62
19884;BME280;10104;50.732;10.174;2023-04-30T12:41:35;98334.19;;;28.23;30.53
19884;BME280;10104;50.732;10.174;2023-04-30T12:44:15;98327.50;;;27.86;30.29
19884;BME280;10104;50.732;10.174;2023-04-30T12:46:37;98322.69;;;28.49;29.28
19884;BME280;10104;50.732;10.174;2023-04-30T12:48:59;98316.25;;;28.40;29.17
19884;BME280;10104;50.732;10.174;2023-04-30T12:51:20;98315.09;;;28.84;29.24
19884;BME280;10104;50.732;10.174;2023-04-30T12:53:45;98320.56;;;29.35;28.77